Time;durP1;ratioP1;P1;durP2;ratioP2;P2;SDS_P1;SDS_P2;PMS_P1;PMS_P2;Temp;Humidity;BMP_temperature;BMP_pressure;BME280_temperature;BME280_humidity;BME280_pressure;Samples;Min_cycle;Max_cycle;Signal;HPM_P1;HPM_P2
2021/06/01 00:02:09;;;;;;;0.00;0.00;;;16.80;78.90;;;;;;5071452;28;20362;-57
2021/06/01 00:04:37;;;;;;;0.00;0.00;;;16.80;78.30;;;;;;5071563;28;20043;-58
2021/06/01 00:07:03;;;;;;;0.00;0.00;;;16.80;78.90;;;;;;5072222;28;20579;-57
2021/06/01 00:09:29;;;;;;;0.00;0.00;;;16.80;76.00;;;;;;5088809;27;20028;-57
2021/06/01 00:11:57;;;;;;;0.00;0.00;;;16.80;75.70;;;;;;5072917;28;20059;-58
2021/06/01 00:14:23;;;;;;;0.00;0.00;;;16.70;76.00;;;;;;5053485;28;20372;-57
2021/06/01 00:16:50;;;;;;;0.00;0.00;;;16.70;80.30;;;;;;5072644;28;20028;-57
2021/06/01 00:19:18;;;;;;;0.00;0.00;;;16.70;77.20;;;;;;5071171;28;20032;-57
2021/06/01 00:21:47;;;;;;;0.00;0.00;;;16.70;76.10;;;;;;5056496;28;20110;-57
2021/06/01 00:24:12;;;;;;;0.00;0.00;;;16.60;77.10;;;;;;5072273;28;20381;-57
2021/06/01 00:26:39;;;;;;;0.00;0.00;;;16.60;80.60;;;;;;5062755;28;20046;-57
2021/06/01 00:29:06;;;;;;;0.00;0.00;;;16.60;78.90;;;;;;5070097;28;20054;-57
2021/06/01 00:31:32;;;;;;;0.00;0.00;;;16.50;76.50;;;;;;5071851;28;20032;-57
2021/06/01 00:34:02;;;;;;;0.00;0.00;;;16.50;76.40;;;;;;5071431;28;20032;-57
2021/06/01 00:36:27;;;;;;;0.00;0.00;;;16.40;76.40;;;;;;5071648;28;20621;-57
2021/06/01 00:38:53;;;;;;;0.00;0.00;;;16.40;77.20;;;;;;5071433;28;20032;-57
2021/06/01 00:41:19;;;;;;;0.00;0.00;;;16.40;76.10;;;;;;5040900;28;20129;-57
2021/06/01 00:43:47;;;;;;;0.03;0.03;;;16.30;76.50;;;;;;5071305;28;20060;-57
2021/06/01 00:46:16;;;;;;;0.00;0.00;;;16.30;77.00;;;;;;5070860;28;20036;-58
2021/06/01 00:48:42;;;;;;;0.00;0.00;;;16.30;78.70;;;;;;5086534;28;20460;-57
2021/06/01 00:51:08;;;;;;;0.07;0.07;;;16.30;76.40;;;;;;5070863;28;20064;-57
2021/06/01 00:53:36;;;;;;;0.00;0.00;;;16.30;79.40;;;;;;5071528;28;20124;-57
2021/06/01 00:56:04;;;;;;;0.00;0.00;;;16.20;80.30;;;;;;5071477;28;20039;-57
2021/06/01 00:58:29;;;;;;;0.00;0.00;;;16.20;77.80;;;;;;5086759;28;20043;-58
2021/06/01 01:03:20;;;;;;;0.00;0.00;;;16.10;78.30;;;;;;5071000;28;20033;-57
2021/06/01 01:05:50;;;;;;;0.00;0.00;;;16.10;79.40;;;;;;5071492;28;20154;-57
2021/06/01 01:11:03;;;;;;;0.00;0.00;;;16.00;79.10;;;;;;5071099;28;20206;-57
2021/06/01 01:13:39;;;;;;;0.00;0.00;;;15.90;80.60;;;;;;5070889;28;20036;-57
2021/06/01 01:16:06;;;;;;;0.00;0.00;;;15.90;82.40;;;;;;5056595;28;20032;-57
2021/06/01 01:18:34;;;;;;;0.00;0.00;;;15.90;81.60;;;;;;5071763;28;20036;-57
2021/06/01 01:21:17;;;;;;;0.00;0.00;;;15.80;82.00;;;;;;5071196;28;20040;-57
2021/06/01 01:23:52;;;;;;;0.07;0.07;;;15.70;81.70;;;;;;5071134;28;20085;-57
2021/06/01 01:26:29;;;;;;;0.00;0.00;;;15.70;81.90;;;;;;5063351;28;20457;-57
2021/06/01 01:29:14;;;;;;;0.10;0.10;;;15.70;83.10;;;;;;5074862;28;20035;-57
2021/06/01 01:31:51;;;;;;;0.00;0.00;;;15.60;83.70;;;;;;5075414;28;20050;-57
2021/06/01 01:34:20;;;;;;;0.00;0.00;;;15.50;83.80;;;;;;5074828;28;20031;-57
2021/06/01 01:36:46;;;;;;;0.00;0.00;;;15.50;84.50;;;;;;5089878;27;20098;-57
2021/06/01 01:39:14;;;;;;;0.00;0.00;;;15.40;84.80;;;;;;5065677;28;20032;-57
2021/06/01 01:41:43;;;;;;;0.00;0.00;;;15.40;85.40;;;;;;5075476;28;20085;-58
2021/06/01 01:44:16;;;;;;;0.00;0.00;;;15.30;85.30;;;;;;5074711;28;20028;-57
2021/06/01 01:49:17;;;;;;;0.00;0.00;;;15.30;86.90;;;;;;5074586;28;20375;-57
2021/06/01 01:51:49;;;;;;;0.00;0.00;;;15.30;88.10;;;;;;5074712;28;20035;-56
2021/06/01 01:54:18;;;;;;;0.10;0.10;;;15.30;87.40;;;;;;5073809;28;20040;-56
2021/06/01 01:56:49;;;;;;;0.00;0.00;;;15.30;85.60;;;;;;5074142;28;20024;-57
2021/06/01 01:59:21;;;;;;;0.10;0.10;;;15.20;86.60;;;;;;5073757;28;20054;-57
2021/06/01 02:01:50;;;;;;;0.00;0.00;;;15.20;86.70;;;;;;5060273;28;20029;-57
2021/06/01 02:04:22;;;;;;;0.10;0.10;;;15.10;86.90;;;;;;5074739;28;20046;-57
2021/06/01 02:06:54;;;;;;;0.00;0.00;;;15.10;88.20;;;;;;5074538;28;20625;-56
2021/06/01 02:09:20;;;;;;;0.10;0.10;;;15.00;88.60;;;;;;5090025;27;20055;-58
2021/06/01 02:11:46;;;;;;;0.00;0.00;;;15.00;90.70;;;;;;5073413;28;20174;-57
2021/06/01 02:14:17;;;;;;;0.00;0.00;;;14.90;91.10;;;;;;5074492;28;20032;-57
2021/06/01 02:16:43;;;;;;;0.00;0.00;;;15.00;91.40;;;;;;5073388;28;20027;-57
2021/06/01 02:19:14;;;;;;;0.00;0.00;;;14.90;91.50;;;;;;5075031;28;20028;-57
2021/06/01 02:24:21;;;;;;;0.00;0.00;;;14.90;91.30;;;;;;5074031;28;20055;-58
2021/06/01 02:27:06;;;;;;;0.00;0.00;;;14.90;91.60;;;;;;5073373;28;20044;-58
2021/06/01 02:29:41;;;;;;;0.10;0.10;;;14.90;90.50;;;;;;5073635;28;20058;-57
2021/06/01 02:32:11;;;;;;;0.00;0.00;;;14.90;90.60;;;;;;5073414;28;20031;-57
2021/06/01 02:34:41;;;;;;;0.10;0.10;;;14.80;91.40;;;;;;5073128;28;20028;-56
2021/06/01 02:37:13;;;;;;;0.10;0.10;;;14.70;91.00;;;;;;5072027;28;20116;-56
2021/06/01 02:39:40;;;;;;;0.00;0.00;;;14.70;92.40;;;;;;5073418;28;20453;-57
2021/06/01 02:42:10;;;;;;;0.00;0.00;;;14.70;92.50;;;;;;5073627;28;20064;-57
2021/06/01 02:44:43;;;;;;;0.00;0.00;;;14.70;93.00;;;;;;5073502;28;20028;-57
2021/06/01 02:47:09;;;;;;;;;;;14.70;93.60;;;;;;5053948;28;20118;-57
2021/06/01 02:49:34;;;;;;;0.10;0.10;;;14.70;94.40;;;;;;5072657;28;20003;-57
2021/06/01 02:52:05;;;;;;;0.07;0.07;;;14.60;94.90;;;;;;5073386;28;20052;-57
2021/06/01 02:54:31;;;;;;;0.10;0.10;;;14.60;94.60;;;;;;5072541;28;20033;-57
2021/06/01 02:56:59;;;;;;;0.00;0.00;;;14.60;94.50;;;;;;5073031;28;20042;-57
2021/06/01 02:59:25;;;;;;;0.00;0.00;;;14.50;94.00;;;;;;5071773;28;20521;-57
2021/06/01 03:01:53;;;;;;;0.00;0.00;;;14.50;95.30;;;;;;5073707;28;20058;-57
2021/06/01 03:04:21;;;;;;;0.00;0.00;;;14.50;95.90;;;;;;5072835;28;20032;-57
2021/06/01 03:06:47;;;;;;;0.00;0.00;;;14.40;96.30;;;;;;5072235;28;20035;-57
2021/06/01 03:09:15;;;;;;;0.03;0.03;;;14.30;96.50;;;;;;5073503;28;20037;-57
2021/06/01 03:11:42;;;;;;;0.00;0.00;;;14.30;96.10;;;;;;5089409;27;20029;-57
2021/06/01 03:14:08;;;;;;;0.00;0.00;;;14.20;96.60;;;;;;5073976;28;20032;-57
2021/06/01 03:16:33;;;;;;;0.00;0.00;;;14.20;97.10;;;;;;5073782;28;20824;-57
2021/06/01 03:18:59;;;;;;;0.00;0.00;;;14.10;97.50;;;;;;5073157;28;20031;-57
2021/06/01 03:21:27;;;;;;;0.10;0.10;;;14.10;97.60;;;;;;5071744;28;20036;-57
2021/06/01 03:23:53;;;;;;;0.00;0.00;;;14.10;97.30;;;;;;5072730;28;20039;-57
2021/06/01 03:26:19;;;;;;;0.00;0.00;;;14.10;95.80;;;;;;5073369;28;20158;-57
2021/06/01 03:28:45;;;;;;;0.10;0.10;;;14.10;94.00;;;;;;5072163;28;20077;-57
2021/06/01 03:31:12;;;;;;;0.00;0.00;;;14.10;94.00;;;;;;5073050;28;20476;-57
2021/06/01 03:33:39;;;;;;;0.03;0.03;;;14.10;94.30;;;;;;5072489;28;20406;-57
2021/06/01 03:36:05;;;;;;;0.77;0.77;;;14.10;93.60;;;;;;5070765;28;20071;-57
2021/06/01 03:38:32;;;;;;;0.00;0.00;;;14.10;93.10;;;;;;5064117;28;20043;-57
2021/06/01 03:40:58;;;;;;;0.00;0.00;;;14.10;92.90;;;;;;5072584;28;20028;-58
2021/06/01 03:43:24;;;;;;;0.07;0.07;;;14.10;93.30;;;;;;5074854;28;20353;-58
2021/06/01 03:45:49;;;;;;;0.00;0.00;;;14.10;93.10;;;;;;5076457;28;20452;-58
2021/06/01 03:48:15;;;;;;;0.00;0.00;;;14.10;92.90;;;;;;5075214;28;20043;-58
2021/06/01 03:50:41;;;;;;;0.00;0.00;;;14.10;93.00;;;;;;5074657;28;20139;-58
2021/06/01 03:53:09;;;;;;;0.03;0.03;;;14.10;93.50;;;;;;5075409;28;20031;-58
2021/06/01 03:55:37;;;;;;;0.00;0.00;;;14.20;94.50;;;;;;5075531;28;20050;-58
2021/06/01 03:58:02;;;;;;;0.00;0.00;;;14.20;93.60;;;;;;5075732;28;20040;-58
2021/06/01 04:00:32;;;;;;;0.00;0.00;;;14.20;93.40;;;;;;5076244;28;20048;-57
2021/06/01 04:02:59;;;;;;;0.00;0.00;;;14.20;92.80;;;;;;5075859;28;20471;-57
2021/06/01 04:05:25;;;;;;;0.00;0.00;;;14.20;93.20;;;;;;5075443;28;20028;-57
2021/06/01 04:07:51;;;;;;;0.00;0.00;;;14.20;93.10;;;;;;5076175;28;20031;-57
2021/06/01 04:10:17;;;;;;;0.00;0.00;;;14.20;92.90;;;;;;5091582;28;20611;-57
2021/06/01 04:12:45;;;;;;;0.00;0.00;;;14.20;93.90;;;;;;5061258;28;20042;-57
2021/06/01 04:15:11;;;;;;;0.00;0.00;;;14.20;94.80;;;;;;5074314;28;20469;-57
2021/06/01 04:17:37;;;;;;;0.00;0.00;;;14.30;93.70;;;;;;5074366;28;20572;-58
2021/06/01 04:20:07;;;;;;;0.00;0.00;;;14.40;93.20;;;;;;5074140;28;20110;-57
2021/06/01 04:22:33;;;;;;;0.00;0.00;;;14.30;92.90;;;;;;5073019;28;20665;-57
2021/06/01 04:24:58;;;;;;;0.00;0.00;;;14.40;93.40;;;;;;5055780;28;20060;-57
2021/06/01 04:27:26;;;;;;;0.10;0.10;;;14.40;93.60;;;;;;5070117;28;20475;-57
2021/06/01 04:29:52;;;;;;;0.10;0.10;;;14.50;93.80;;;;;;5053080;28;20621;-57
2021/06/01 04:32:17;;;;;;;0.00;0.00;;;14.60;93.50;;;;;;5072922;28;20028;-57
2021/06/01 04:34:46;;;;;;;0.00;0.00;;;14.60;92.10;;;;;;5053488;28;20398;-57
2021/06/01 04:37:14;;;;;;;0.00;0.00;;;14.60;92.00;;;;;;5072315;28;20024;-57
2021/06/01 04:39:39;;;;;;;0.00;0.00;;;14.50;92.60;;;;;;5088496;28;20689;-58
2021/06/01 04:42:05;;;;;;;0.10;0.10;;;14.60;92.60;;;;;;5071994;28;20086;-57
2021/06/01 04:44:31;;;;;;;0.00;0.00;;;14.60;91.90;;;;;;5054062;28;20039;-57
2021/06/01 04:46:56;;;;;;;0.00;0.00;;;14.60;92.40;;;;;;5072324;28;20519;-58
2021/06/01 04:49:22;;;;;;;0.00;0.00;;;14.70;92.30;;;;;;5072013;28;20039;-57
2021/06/01 04:51:48;;;;;;;0.00;0.00;;;14.70;91.90;;;;;;5062291;28;20024;-57
2021/06/01 04:54:13;;;;;;;0.10;0.10;;;14.70;91.90;;;;;;5052975;28;20096;-57
2021/06/01 04:56:41;;;;;;;0.00;0.00;;;14.70;91.90;;;;;;5063067;28;20107;-57
2021/06/01 04:59:09;;;;;;;0.00;0.00;;;14.70;91.70;;;;;;5071681;28;20032;-56
2021/06/01 05:01:38;;;;;;;0.00;0.00;;;14.80;91.50;;;;;;5075976;28;20078;-57
2021/06/01 05:04:06;;;;;;;0.00;0.00;;;14.90;91.70;;;;;;5093064;27;20159;-57
2021/06/01 05:06:33;;;;;;;0.00;0.00;;;15.00;91.90;;;;;;5093281;27;20546;-57
2021/06/01 05:08:58;;;;;;;0.00;0.00;;;14.90;90.80;;;;;;5075738;28;20024;-57
2021/06/01 05:11:24;;;;;;;0.00;0.00;;;15.00;91.10;;;;;;5075660;28;20093;-57
2021/06/01 05:13:49;;;;;;;0.00;0.00;;;15.10;90.70;;;;;;5075335;28;20947;-57
2021/06/01 05:16:15;;;;;;;0.00;0.00;;;15.20;92.10;;;;;;5075016;28;20041;-57
2021/06/01 05:18:42;;;;;;;0.00;0.00;;;;;;;;;;5075232;28;20024;-57
2021/06/01 05:21:07;;;;;;;0.00;0.00;;;15.40;90.10;;;;;;5075697;28;20084;-57
2021/06/01 05:23:36;;;;;;;0.00;0.00;;;15.60;90.20;;;;;;5074429;28;20036;-57
2021/06/01 05:26:03;;;;;;;0.00;0.00;;;15.70;91.20;;;;;;5074161;28;20523;-57
2021/06/01 05:28:29;;;;;;;0.00;0.00;;;15.90;90.70;;;;;;5075324;28;20052;-57
2021/06/01 05:33:29;;;;;;;0.00;0.00;;;15.80;87.00;;;;;;5075728;28;20024;-57
2021/06/01 05:35:55;;;;;;;0.00;0.00;;;15.60;87.40;;;;;;5074883;28;20456;-57
2021/06/01 05:38:25;;;;;;;0.00;0.00;;;15.60;87.30;;;;;;5054954;28;20122;-57
2021/06/01 05:40:52;;;;;;;0.00;0.00;;;15.60;88.10;;;;;;5075291;28;20035;-58
2021/06/01 05:43:18;;;;;;;0.00;0.00;;;15.60;89.20;;;;;;5074738;28;20121;-57
2021/06/01 05:45:44;;;;;;;0.00;0.00;;;15.60;87.80;;;;;;5074034;28;20449;-56
2021/06/01 05:48:13;;;;;;;0.00;0.00;;;15.60;88.30;;;;;;5061433;28;20044;-57
2021/06/01 05:50:42;;;;;;;0.00;0.00;;;15.60;87.00;;;;;;5074580;28;20585;-58
2021/06/01 05:53:09;;;;;;;0.00;0.00;;;15.60;87.40;;;;;;5073604;28;20107;-57
2021/06/01 05:55:37;;;;;;;0.00;0.00;;;15.60;87.20;;;;;;5074449;28;20060;-57
2021/06/01 05:58:04;;;;;;;0.00;0.00;;;15.70;87.00;;;;;;5074516;28;20031;-57
2021/06/01 06:00:31;;;;;;;0.00;0.00;;;15.70;86.00;;;;;;5059130;28;20040;-57
2021/06/01 06:02:58;;;;;;;0.00;0.00;;;15.70;86.30;;;;;;5073877;28;20043;-56
2021/06/01 06:05:24;;;;;;;0.00;0.00;;;15.80;85.60;;;;;;5074429;28;20654;-56
2021/06/01 06:07:53;;;;;;;0.00;0.00;;;15.90;85.70;;;;;;5073779;28;20043;-57
2021/06/01 06:10:18;;;;;;;0.00;0.00;;;15.90;85.30;;;;;;5064960;28;20032;-57
2021/06/01 06:12:44;;;;;;;0.00;0.00;;;16.00;85.10;;;;;;5074446;28;20043;-56
2021/06/01 06:15:19;;;;;;;0.00;0.00;;;16.00;84.50;;;;;;5074056;28;20123;-57
2021/06/01 06:17:52;;;;;;;0.00;0.00;;;16.10;84.60;;;;;;5073892;28;20032;-56
2021/06/01 06:20:21;;;;;;;0.00;0.00;;;16.20;85.00;;;;;;5073741;28;20024;-57
2021/06/01 06:22:47;;;;;;;0.00;0.00;;;16.30;83.50;;;;;;5088884;27;20040;-57
2021/06/01 06:25:14;;;;;;;0.00;0.00;;;16.50;84.10;;;;;;5056545;28;20102;-56
2021/06/01 06:27:39;;;;;;;0.00;0.00;;;16.60;86.00;;;;;;5058731;28;20028;-56
2021/06/01 06:30:11;;;;;;;0.00;0.00;;;16.70;83.20;;;;;;5073628;28;20039;-57
2021/06/01 06:32:37;;;;;;;0.00;0.00;;;16.80;81.60;;;;;;5074493;28;20047;-57
2021/06/01 06:35:05;;;;;;;0.00;0.00;;;16.80;81.30;;;;;;5074450;28;20171;-57
2021/06/01 06:37:31;;;;;;;0.00;0.00;;;16.90;82.20;;;;;;5072836;28;20028;-57
2021/06/01 06:39:57;;;;;;;0.00;0.00;;;16.80;80.50;;;;;;5073631;28;20055;-57
2021/06/01 06:42:23;;;;;;;0.00;0.00;;;16.90;83.30;;;;;;5073034;28;20089;-57
2021/06/01 06:44:53;;;;;;;0.00;0.00;;;17.00;82.70;;;;;;5072711;28;20385;-57
2021/06/01 06:47:40;;;;;;;0.00;0.00;;;17.00;82.30;;;;;;5074620;28;20127;-57
2021/06/01 06:50:09;;;;;;;0.00;0.00;;;17.20;81.00;;;;;;5072847;28;20097;-57
2021/06/01 06:52:39;;;;;;;0.00;0.00;;;17.30;82.50;;;;;;5053633;28;20381;-57
2021/06/01 06:55:08;;;;;;;0.00;0.00;;;17.40;82.10;;;;;;5053419;28;20036;-56
2021/06/01 06:57:38;;;;;;;0.00;0.00;;;17.50;79.40;;;;;;5073191;28;20047;-57
2021/06/01 07:00:09;;;;;;;0.00;0.00;;;17.40;77.10;;;;;;5088820;27;20044;-57
2021/06/01 07:02:36;;;;;;;0.00;0.00;;;17.50;77.90;;;;;;5073198;28;20037;-57
2021/06/01 07:05:02;;;;;;;0.00;0.00;;;17.50;78.70;;;;;;5073452;28;20036;-57
2021/06/01 07:07:28;;;;;;;0.00;0.00;;;17.60;77.10;;;;;;5071427;28;20036;-57
2021/06/01 07:09:54;;;;;;;0.00;0.00;;;17.60;76.40;;;;;;5072490;28;20093;-57
2021/06/01 07:12:19;;;;;;;0.00;0.00;;;17.60;76.90;;;;;;5073092;28;20044;-57
2021/06/01 07:14:51;;;;;;;0.00;0.00;;;17.60;78.70;;;;;;5072257;28;20360;-59
2021/06/01 07:17:17;;;;;;;0.00;0.00;;;17.80;77.30;;;;;;5089069;27;20625;-57
2021/06/01 07:19:46;;;;;;;0.00;0.00;;;17.90;77.20;;;;;;5072915;28;20586;-56
2021/06/01 07:22:14;;;;;;;0.00;0.00;;;17.90;76.10;;;;;;5075924;28;20487;-57
2021/06/01 07:24:42;;;;;;;0.00;0.00;;;18.00;75.90;;;;;;5059567;28;20051;-58
2021/06/01 07:27:08;;;;;;;0.00;0.00;;;18.00;75.00;;;;;;5091653;27;20035;-56
2021/06/01 07:29:33;;;;;;;0.00;0.00;;;18.10;75.60;;;;;;5074451;28;20039;-57
2021/06/01 07:31:59;;;;;;;0.00;0.00;;;18.20;76.30;;;;;;5072932;28;20505;-57
2021/06/01 07:34:27;;;;;;;0.00;0.00;;;18.30;76.10;;;;;;5072004;28;20028;-61
2021/06/01 07:36:57;;;;;;;0.00;0.00;;;18.40;75.20;;;;;;5074755;28;20057;-57
2021/06/01 07:39:23;;;;;;;0.00;0.00;;;18.40;74.60;;;;;;5074937;28;20039;-57
2021/06/01 07:41:51;;;;;;;0.00;0.00;;;18.50;74.10;;;;;;5072807;28;20511;-57
2021/06/01 07:44:16;;;;;;;0.00;0.00;;;18.70;73.90;;;;;;5072735;28;20123;-57
2021/06/01 07:46:42;;;;;;;0.00;0.00;;;18.80;72.70;;;;;;5088501;27;20476;-56
2021/06/01 07:49:10;;;;;;;0.00;0.00;;;18.80;72.70;;;;;;5087835;27;20024;-57
2021/06/01 07:51:40;;;;;;;0.00;0.00;;;18.90;72.20;;;;;;5072263;28;20031;-57
2021/06/01 07:54:08;;;;;;;0.00;0.00;;;19.00;72.30;;;;;;5071737;28;20534;-57
2021/06/01 07:56:34;;;;;;;0.00;0.00;;;19.10;70.70;;;;;;5072997;28;20024;-58
2021/06/01 07:59:00;;;;;;;0.00;0.00;;;19.20;70.40;;;;;;5073569;28;20039;-57
2021/06/01 08:01:26;;;;;;;0.00;0.00;;;19.30;71.80;;;;;;5062785;28;20103;-57
2021/06/01 08:03:51;;;;;;;0.00;0.00;;;19.30;70.30;;;;;;5072456;28;20282;-57
2021/06/01 08:06:17;;;;;;;0.00;0.00;;;19.50;69.30;;;;;;5071497;28;20023;-57
2021/06/01 08:08:43;;;;;;;0.00;0.00;;;19.60;68.50;;;;;;5071508;28;20093;-57
2021/06/01 08:11:13;;;;;;;0.43;0.43;;;19.70;67.80;;;;;;5072159;28;21903;-57
2021/06/01 08:13:39;;;;;;;0.00;0.00;;;19.70;66.20;;;;;;5058911;28;20021;-57
2021/06/01 08:16:04;;;;;;;0.00;0.00;;;19.70;65.90;;;;;;5062339;28;20472;-57
2021/06/01 08:18:40;;;;;;;0.00;0.00;;;19.80;66.30;;;;;;5072330;28;21865;-57
2021/06/01 08:21:12;;;;;;;0.00;0.00;;;19.80;65.40;;;;;;5053559;28;20020;-57
2021/06/01 08:23:39;;;;;;;0.00;0.00;;;19.80;64.30;;;;;;5071251;28;20037;-57
2021/06/01 08:26:07;;;;;;;0.00;0.00;;;19.90;65.70;;;;;;5072232;28;20549;-57
2021/06/01 08:28:33;;;;;;;0.00;0.00;;;20.00;65.40;;;;;;5070732;28;20036;-58
2021/06/01 08:31:02;;;;;;;0.00;0.00;;;20.10;63.60;;;;;;5071221;28;20486;-57
2021/06/01 08:33:30;;;;;;;0.00;0.00;;;20.10;63.80;;;;;;5071795;28;20043;-57
2021/06/01 08:35:57;;;;;;;0.00;0.00;;;20.20;62.10;;;;;;5072037;28;20041;-57
2021/06/01 08:38:23;;;;;;;0.00;0.00;;;20.30;59.90;;;;;;5072035;28;20032;-57
2021/06/01 08:40:51;;;;;;;0.00;0.00;;;20.30;61.50;;;;;;5071095;28;20027;-57
2021/06/01 08:43:25;;;;;;;0.00;0.00;;;20.50;60.20;;;;;;5058640;28;20629;-58
2021/06/01 08:45:57;;;;;;;0.00;0.00;;;20.60;56.60;;;;;;5071014;28;20037;-58
2021/06/01 08:48:26;;;;;;;0.00;0.00;;;20.70;56.10;;;;;;5071538;28;20777;-58
2021/06/01 08:50:54;;;;;;;0.00;0.00;;;20.70;55.60;;;;;;5071231;28;20044;-58
2021/06/01 08:53:21;;;;;;;0.00;0.00;;;20.80;55.20;;;;;;5071447;28;20503;-58
2021/06/01 08:55:48;;;;;;;0.00;0.00;;;20.90;54.50;;;;;;5071083;28;20039;-58
2021/06/01 08:58:18;;;;;;;0.00;0.00;;;20.90;53.70;;;;;;5071553;28;20071;-60
2021/06/01 09:00:44;;;;;;;0.00;0.00;;;21.00;53.90;;;;;;5071632;28;20062;-58
2021/06/01 09:03:17;;;;;;;0.10;0.10;;;21.10;52.80;;;;;;5071052;28;20024;-58
2021/06/01 09:09:10;;;;;;;0.00;0.00;;;21.10;51.60;;;;;;5071073;28;20204;-57
2021/06/01 09:20:05;;;;;;;0.10;0.10;;;21.40;52.40;;;;;;5071221;28;20052;-58
2021/06/01 09:22:38;;;;;;;0.10;0.10;;;21.40;52.70;;;;;;5071562;28;20035;-57
2021/06/01 09:25:14;;;;;;;0.00;0.00;;;21.40;53.30;;;;;;5070195;28;20086;-57
2021/06/01 09:27:51;;;;;;;0.10;0.10;;;21.60;51.20;;;;;;5070364;28;20044;-57
2021/06/01 09:30:37;;;;;;;0.00;0.00;;;21.60;51.50;;;;;;5071140;28;20036;-57
2021/06/01 09:33:27;;;;;;;0.00;0.00;;;21.70;52.00;;;;;;5060782;28;20045;-57
2021/06/01 09:35:56;;;;;;;0.00;0.00;;;21.90;51.30;;;;;;5041771;28;20051;-57
2021/06/01 09:38:29;;;;;;;0.00;0.00;;;22.00;51.50;;;;;;5086331;28;20032;-57
2021/06/01 09:41:25;;;;;;;0.00;0.00;;;22.10;50.30;;;;;;5071104;28;20055;-57
2021/06/01 09:44:06;;;;;;;0.00;0.00;;;22.10;50.40;;;;;;5069140;28;20044;-57
2021/06/01 09:46:48;;;;;;;0.08;0.08;;;22.10;50.00;;;;;;5058099;28;20043;-57
2021/06/01 09:49:17;;;;;;;0.10;0.10;;;22.20;50.10;;;;;;5060126;28;20060;-57
2021/06/01 09:51:55;;;;;;;0.00;0.00;;;22.20;50.80;;;;;;5074594;28;20033;-58
2021/06/01 09:54:39;;;;;;;0.00;0.00;;;22.40;49.10;;;;;;5074818;28;20052;-57
2021/06/01 09:57:23;;;;;;;0.00;0.00;;;22.40;49.00;;;;;;5073959;28;20035;-58
2021/06/01 10:00:16;;;;;;;0.03;0.03;;;22.40;48.50;;;;;;5074419;28;20036;-57
2021/06/01 10:02:43;;;;;;;0.00;0.00;;;22.30;48.00;;;;;;5074530;28;20039;-58
2021/06/01 10:05:12;;;;;;;0.08;0.08;;;22.30;49.60;;;;;;5073673;28;20475;-58
2021/06/01 10:07:45;;;;;;;0.00;0.00;;;22.40;49.90;;;;;;5074028;28;20198;-58
2021/06/01 10:10:18;;;;;;;0.00;0.00;;;22.50;49.30;;;;;;5074432;28;21786;-58
2021/06/01 10:12:49;;;;;;;0.00;0.00;;;22.70;49.00;;;;;;5054533;28;20749;-58
2021/06/01 10:15:17;;;;;;;0.00;0.00;;;22.70;48.80;;;;;;5074123;28;20028;-58
2021/06/01 10:17:44;;;;;;;0.00;0.00;;;22.80;49.60;;;;;;5074188;28;20032;-58
2021/06/01 10:20:10;;;;;;;0.00;0.00;;;22.80;49.10;;;;;;5073580;28;20028;-58
2021/06/01 10:22:37;;;;;;;0.00;0.00;;;22.80;48.80;;;;;;5074007;28;20347;-61
2021/06/01 10:25:04;;;;;;;0.00;0.00;;;22.80;48.10;;;;;;5073105;28;20032;-58
2021/06/01 10:27:35;;;;;;;0.00;0.00;;;22.80;48.90;;;;;;5060269;28;20031;-57
2021/06/01 10:30:03;;;;;;;0.00;0.00;;;22.90;50.00;;;;;;5089935;27;20064;-58
2021/06/01 10:32:29;;;;;;;0.10;0.10;;;22.90;50.00;;;;;;5070169;28;20080;-58
2021/06/01 10:34:58;;;;;;;0.00;0.00;;;23.00;49.70;;;;;;5073140;28;20388;-57
2021/06/01 10:51:58;;;;;;;0.00;0.00;;;23.40;48.70;;;;;;5073183;28;20032;-57
2021/06/01 10:54:39;;;;;;;0.00;0.00;;;23.40;48.70;;;;;;5071681;28;20036;-58
2021/06/01 10:57:08;;;;;;;0.00;0.00;;;23.60;48.30;;;;;;5059316;28;20044;-57
2021/06/01 10:59:47;;;;;;;0.00;0.00;;;23.70;48.20;;;;;;5072232;28;20059;-57
2021/06/01 11:02:16;;;;;;;0.00;0.00;;;23.80;47.80;;;;;;5072705;28;20035;-58
2021/06/01 11:05:01;;;;;;;0.00;0.00;;;23.80;47.40;;;;;;5071052;28;20058;-57
2021/06/01 11:07:57;;;;;;;0.00;0.00;;;23.90;47.60;;;;;;5072561;28;20477;-57
2021/06/01 11:10:42;;;;;;;0.00;0.00;;;24.00;46.80;;;;;;5072508;28;20040;-57
2021/06/01 11:13:09;;;;;;;0.00;0.00;;;24.10;46.30;;;;;;5072976;28;20671;-58
2021/06/01 11:15:39;;;;;;;0.00;0.00;;;24.20;46.70;;;;;;5071920;28;20033;-57
2021/06/01 11:18:24;;;;;;;0.00;0.00;;;24.30;46.60;;;;;;5072894;28;20024;-57
2021/06/01 11:21:16;;;;;;;0.00;0.00;;;24.30;44.40;;;;;;5072577;28;21033;-57
2021/06/01 11:24:08;;;;;;;;;;;24.40;43.90;;;;;;5072477;28;20023;-57
2021/06/01 11:35:23;;;;;;;0.00;0.00;;;25.20;43.30;;;;;;5073011;28;20074;-58
2021/06/01 11:38:13;;;;;;;0.00;0.00;;;26.20;42.30;;;;;;5072034;28;20033;-57
2021/06/01 11:43:15;;;;;;;0.00;0.00;;;28.20;39.20;;;;;;5073429;28;20028;-58
2021/06/01 11:45:47;;;;;;;0.00;0.00;;;28.30;38.50;;;;;;5072325;28;20020;-58
2021/06/01 11:51:24;;;;;;;0.00;0.00;;;29.30;38.00;;;;;;5073063;28;20113;-58
2021/06/01 11:53:58;;;;;;;0.00;0.00;;;29.50;37.20;;;;;;5072715;28;20026;-58
2021/06/01 12:02:28;;;;;;;0.00;0.00;;;30.90;36.70;;;;;;5072016;28;20031;-58
2021/06/01 12:20:47;;;;;;;6.13;5.78;;;33.50;33.00;;;;;;5071023;28;20042;-58
2021/06/01 12:23:26;;;;;;;0.20;0.20;;;32.70;33.10;;;;;;5071785;28;20065;-58
2021/06/01 12:26:06;;;;;;;0.00;0.00;;;32.40;33.70;;;;;;5071742;28;20407;-59
2021/06/01 12:31:20;;;;;;;0.00;0.00;;;34.00;33.10;;;;;;5074312;28;20039;-59
2021/06/01 12:34:05;;;;;;;0.10;0.10;;;33.70;32.50;;;;;;5070959;28;20085;-59
2021/06/01 12:45:22;;;;;;;0.30;0.30;;;34.60;32.20;;;;;;5071527;28;20028;-59
2021/06/01 13:05:25;;;;;;;0.00;0.00;;;34.60;31.10;;;;;;5072563;28;20464;-59
2021/06/01 13:21:53;;;;;;;0.00;0.00;;;37.50;30.00;;;;;;5072643;28;20035;-59
2021/06/01 13:30:09;;;;;;;0.00;0.00;;;37.00;30.00;;;;;;5075701;28;20159;-59
2021/06/01 13:30:24;;;;;;;0.00;0.00;;;36.40;30.00;;;;;;5059401;28;20036;-59
2021/06/01 13:39:29;;;;;;;0.00;0.00;;;36.10;30.40;;;;;;5075350;28;20089;-59
2021/06/01 13:46:44;;;;;;;0.00;0.00;;;38.70;29.80;;;;;;5074328;28;20051;-58
2021/06/01 13:50:06;;;;;;;0.00;0.00;;;37.20;29.10;;;;;;5057048;28;20032;-58
2021/06/01 13:56:48;;;;;;;0.00;0.00;;;37.40;29.20;;;;;;5075295;28;20028;-59
2021/06/01 14:22:01;;;;;;;0.00;0.00;;;36.10;30.60;;;;;;5074797;28;20108;-60
2021/06/01 15:08:15;;;;;;;0.00;0.00;;;36.00;30.20;;;;;;5073395;28;20472;-59
2021/06/01 15:28:36;;;;;;;0.00;0.00;;;34.40;30.00;;;;;;5073011;28;20043;-58
2021/06/01 15:49:40;;;;;;;0.00;0.00;;;34.40;30.70;;;;;;5072023;28;20043;-60
2021/06/01 16:14:11;;;;;;;0.00;0.00;;;33.80;31.40;;;;;;5071608;28;20043;-58
2021/06/01 16:31:13;;;;;;;0.00;0.00;;;33.80;31.50;;;;;;5071518;28;20446;-59
2021/06/01 17:03:37;;;;;;;0.00;0.00;;;32.30;33.60;;;;;;5075417;28;20109;-59
2021/06/01 17:06:08;;;;;;;0.00;0.00;;;32.30;32.80;;;;;;5074570;28;20211;-59
2021/06/01 17:11:18;;;;;;;0.00;0.00;;;31.30;34.00;;;;;;5075970;28;20043;-59
2021/06/01 17:13:53;;;;;;;0.00;0.00;;;31.60;34.30;;;;;;5075694;28;20519;-59
2021/06/01 17:16:30;;;;;;;0.00;0.00;;;31.60;34.10;;;;;;5090643;27;20032;-59
2021/06/01 17:19:22;;;;;;;0.00;0.00;;;31.80;34.70;;;;;;5076119;28;20032;-59
2021/06/01 17:30:25;;;;;;;0.00;0.00;;;30.40;34.80;;;;;;5079182;28;20094;-59
2021/06/01 17:35:45;;;;;;;0.00;0.00;;;27.40;38.70;;;;;;5073806;28;20104;-60
2021/06/01 17:38:12;;;;;;;0.00;0.00;;;27.20;38.80;;;;;;5059723;28;20020;-59
2021/06/01 17:40:41;;;;;;;0.00;0.00;;;27.00;38.80;;;;;;5074439;28;20047;-60
2021/06/01 17:43:09;;;;;;;0.00;0.00;;;26.70;39.30;;;;;;5074409;28;20024;-58
2021/06/01 17:45:46;;;;;;;0.00;0.00;;;26.50;39.70;;;;;;5056729;28;20068;-58
2021/06/01 17:51:11;;;;;;;0.00;0.00;;;26.30;40.10;;;;;;5050945;28;21881;-59
2021/06/01 17:53:50;;;;;;;0.00;0.00;;;26.20;40.10;;;;;;5061493;28;20028;-59
2021/06/01 17:56:23;;;;;;;0.00;0.00;;;26.20;40.40;;;;;;5073586;28;20127;-59
2021/06/01 17:58:49;;;;;;;0.00;0.00;;;26.00;39.90;;;;;;5074122;28;20039;-59
2021/06/01 18:01:17;;;;;;;0.00;0.00;;;25.80;40.20;;;;;;5073974;28;20044;-59
2021/06/01 18:03:55;;;;;;;0.00;0.00;;;25.80;41.10;;;;;;5074766;28;20058;-59
2021/06/01 18:06:32;;;;;;;0.00;0.00;;;25.90;40.60;;;;;;5074134;28;20024;-58
2021/06/01 19:28:27;;;;;;;0.03;0.03;;;23.90;44.20;;;;;;5046734;28;20048;-58
2021/06/01 19:50:19;;;;;;;0.00;0.00;;;23.30;45.20;;;;;;5072271;28;20097;-59
2021/06/01 19:52:50;;;;;;;0.00;0.00;;;23.30;45.90;;;;;;5072318;28;20036;-59
2021/06/01 19:55:19;;;;;;;0.00;0.00;;;23.20;45.80;;;;;;5071269;28;20027;-59
2021/06/01 19:57:48;;;;;;;0.10;0.10;;;23.20;45.80;;;;;;5072214;28;20024;-59
2021/06/01 20:00:17;;;;;;;0.05;0.05;;;23.10;45.80;;;;;;5072176;28;20052;-59
2021/06/01 20:02:43;;;;;;;0.00;0.00;;;23.00;47.40;;;;;;5071630;28;20062;-59
2021/06/01 20:05:14;;;;;;;0.00;0.00;;;23.00;47.90;;;;;;5072218;28;20028;-59